Time;durP1;ratioP1;P1;durP2;ratioP2;P2;SDS_P1;SDS_P2;PMS_P1;PMS_P2;Temp;Humidity;BMP_temperature;BMP_pressure;BME280_temperature;BME280_humidity;BME280_pressure;Samples;Min_cycle;Max_cycle;Signal;HPM_P1;HPM_P2
2021/03/27 00:01:57;;;;;;;3.53;1.40;;;7.30;87.50;;;;;;5092938;28;20067;-54
2021/03/27 00:04:47;;;;;;;4.57;1.40;;;7.30;88.30;;;;;;5091925;28;20085;-53
2021/03/27 00:07:37;;;;;;;6.45;1.83;;;7.20;88.70;;;;;;5092262;28;20051;-52
2021/03/27 00:10:24;;;;;;;5.22;1.60;;;7.10;89.10;;;;;;5091092;28;20511;-53
2021/03/27 00:13:12;;;;;;;2.63;1.60;;;7.10;90.00;;;;;;5089335;28;20070;-52
2021/03/27 00:15:40;;;;;;;3.00;1.60;;;7.00;89.40;;;;;;5097501;28;20115;-53
2021/03/27 00:18:22;;;;;;;3.53;1.40;;;7.00;89.40;;;;;;5092537;28;20118;-52
2021/03/27 00:21:11;;;;;;;5.85;1.83;;;7.00;89.80;;;;;;5080988;28;20048;-51
2021/03/27 00:23:44;;;;;;;5.13;1.95;;;7.00;89.50;;;;;;5091395;28;20044;-51
2021/03/27 00:26:26;;;;;;;6.85;2.33;;;7.00;89.20;;;;;;5092511;28;20044;-51
2021/03/27 00:29:06;;;;;;;9.73;2.78;;;7.10;89.90;;;;;;5092442;28;20040;-52
2021/03/27 00:31:42;;;;;;;4.43;2.33;;;7.00;89.40;;;;;;5092741;28;20079;-53
2021/03/27 00:34:13;;;;;;;3.88;2.40;;;7.10;90.00;;;;;;5074636;28;20077;-53
2021/03/27 00:36:47;;;;;;;4.63;2.80;;;7.10;89.60;;;;;;5108214;28;20028;-53
2021/03/27 00:39:15;;;;;;;4.20;2.53;;;7.00;89.50;;;;;;5092854;28;20093;-55
2021/03/27 00:41:54;;;;;;;6.60;2.95;;;7.00;89.50;;;;;;5091198;28;20041;-54
2021/03/27 00:44:25;;;;;;;6.70;3.22;;;7.00;89.40;;;;;;5092506;28;20052;-52
2021/03/27 00:46:51;;;;;;;5.75;2.50;;;7.00;89.70;;;;;;5091762;28;20040;-53
2021/03/27 00:49:22;;;;;;;5.60;2.65;;;7.00;89.50;;;;;;5093111;28;20040;-55
2021/03/27 00:52:00;;;;;;;5.72;2.88;;;7.00;89.60;;;;;;5091066;28;20098;-54
2021/03/27 00:54:34;;;;;;;5.93;2.58;;;7.00;89.80;;;;;;5090759;28;20036;-54
2021/03/27 00:57:18;;;;;;;6.60;2.63;;;7.00;89.80;;;;;;5090285;28;20048;-53
2021/03/27 01:00:05;;;;;;;5.68;2.60;;;7.00;89.60;;;;;;5083098;28;20122;-54
2021/03/27 01:02:35;;;;;;;5.40;2.90;;;7.00;90.10;;;;;;5077685;28;20044;-53
2021/03/27 01:05:06;;;;;;;5.00;2.47;;;7.00;89.60;;;;;;5091974;28;20056;-54
2021/03/27 01:07:33;;;;;;;6.70;2.75;;;7.00;90.00;;;;;;5103359;28;20047;-53
2021/03/27 01:10:26;;;;;;;5.90;3.00;;;7.00;89.80;;;;;;5091566;28;20067;-54
2021/03/27 01:12:54;;;;;;;5.78;2.50;;;7.00;90.10;;;;;;5092561;28;20112;-54
2021/03/27 01:15:36;;;;;;;6.78;3.20;;;7.00;90.10;;;;;;5091633;28;20048;-53
2021/03/27 01:18:08;;;;;;;7.32;2.95;;;7.00;90.10;;;;;;5091333;28;20051;-54
2021/03/27 01:20:43;;;;;;;;;;;7.00;89.90;;;;;;5065729;28;20047;-53
2021/03/27 01:23:10;;;;;;;6.72;3.03;;;7.00;90.20;;;;;;5091989;28;20394;-51
2021/03/27 01:25:39;;;;;;;6.95;3.08;;;7.00;90.10;;;;;;5090427;28;20552;-53
2021/03/27 01:28:39;;;;;;;5.55;2.83;;;6.90;90.10;;;;;;5089900;28;20527;-54
2021/03/27 01:31:44;;;;;;;5.15;2.97;;;6.90;90.30;;;;;;5068690;28;20048;-54
2021/03/27 01:34:42;;;;;;;5.60;3.08;;;6.90;90.50;;;;;;5083176;28;20061;-54
2021/03/27 01:37:19;;;;;;;9.30;3.50;;;6.90;90.40;;;;;;5089633;28;20074;-55
2021/03/27 01:40:12;;;;;;;7.00;3.00;;;6.90;90.10;;;;;;5091442;28;20400;-52
2021/03/27 01:42:44;;;;;;;5.53;2.75;;;6.90;90.20;;;;;;5084307;28;20123;-53
2021/03/27 01:45:40;;;;;;;7.88;3.03;;;6.90;90.20;;;;;;5091663;28;20032;-54
2021/03/27 01:48:28;;;;;;;6.70;2.70;;;6.90;90.10;;;;;;5089837;28;20044;-51
2021/03/27 01:51:06;;;;;;;4.68;3.03;;;6.80;90.20;;;;;;5088326;28;20138;-52
2021/03/27 01:53:42;;;;;;;8.02;3.25;;;6.90;90.40;;;;;;5091277;28;20473;-54
2021/03/27 01:56:27;;;;;;;5.95;2.83;;;6.80;90.50;;;;;;5106966;28;20040;-52
2021/03/27 01:59:14;;;;;;;7.10;3.63;;;6.80;90.50;;;;;;5091354;28;20487;-52
2021/03/27 02:01:40;;;;;;;6.85;3.65;;;6.80;90.50;;;;;;5085722;28;20055;-54
2021/03/27 02:04:13;;;;;;;7.10;3.17;;;6.70;90.50;;;;;;5091082;28;20098;-51
2021/03/27 02:06:45;;;;;;;;;;;6.70;90.60;;;;;;5095119;28;20028;-53
2021/03/27 02:09:30;;;;;;;4.40;2.80;;;6.70;90.60;;;;;;5091559;28;19961;-53
2021/03/27 02:12:07;;;;;;;4.72;2.60;;;6.70;90.60;;;;;;5090304;28;20123;-53
2021/03/27 02:14:48;;;;;;;5.22;2.95;;;6.80;90.50;;;;;;5096367;28;20064;-54
2021/03/27 02:17:36;;;;;;;4.10;2.38;;;6.80;90.70;;;;;;5090416;28;20131;-53
2021/03/27 02:20:45;;;;;;;5.30;2.70;;;6.80;90.60;;;;;;5091264;28;20147;-54
2021/03/27 02:23:30;;;;;;;5.68;2.90;;;6.80;90.70;;;;;;5085441;28;20064;-54
2021/03/27 02:26:18;;;;;;;6.70;3.35;;;6.80;90.80;;;;;;5091426;28;20031;-50
2021/03/27 02:29:29;;;;;;;6.22;3.92;;;6.70;90.60;;;;;;5092298;28;20101;-53
2021/03/27 02:32:38;;;;;;;5.60;3.90;;;6.70;90.60;;;;;;5054962;28;20101;-52
2021/03/27 02:35:16;;;;;;;9.82;4.10;;;6.70;90.60;;;;;;5042936;28;20041;-53
2021/03/27 02:38:11;;;;;;;7.93;4.53;;;6.70;90.60;;;;;;5088007;28;20055;-53
2021/03/27 02:40:47;;;;;;;7.47;4.18;;;6.70;90.70;;;;;;5095154;28;20446;-52
2021/03/27 02:43:25;;;;;;;9.63;4.60;;;6.60;90.60;;;;;;5093073;28;20119;-54
2021/03/27 02:46:06;;;;;;;6.65;4.28;;;6.60;90.50;;;;;;5095270;28;20097;-54
2021/03/27 02:48:44;;;;;;;9.38;4.45;;;6.60;90.50;;;;;;5060005;28;20563;-52
2021/03/27 02:51:22;;;;;;;8.93;4.90;;;6.60;90.50;;;;;;5090909;28;20147;-50
2021/03/27 02:54:03;;;;;;;8.32;4.72;;;6.70;90.40;;;;;;5092677;28;20069;-51
2021/03/27 02:57:02;;;;;;;8.25;5.15;;;6.60;90.50;;;;;;5073980;28;20400;-54
2021/03/27 02:59:50;;;;;;;9.35;4.93;;;6.60;90.40;;;;;;5079079;28;20043;-53
2021/03/27 03:02:19;;;;;;;10.50;4.72;;;6.50;90.50;;;;;;5094298;28;20050;-52
2021/03/27 03:05:10;;;;;;;10.90;4.70;;;6.50;90.40;;;;;;5076684;28;20496;-54
2021/03/27 03:07:48;;;;;;;9.55;4.82;;;6.60;90.40;;;;;;5093876;28;20415;-53
2021/03/27 03:10:20;;;;;;;12.48;4.90;;;6.60;90.30;;;;;;5103780;28;20059;-52
2021/03/27 03:13:20;;;;;;;9.07;4.55;;;6.60;90.30;;;;;;5108520;28;20035;-51
2021/03/27 03:16:09;;;;;;;10.52;4.78;;;6.60;90.20;;;;;;5093468;28;20474;-54
2021/03/27 03:18:44;;;;;;;8.43;4.60;;;6.60;90.10;;;;;;5085032;28;20085;-54
2021/03/27 03:21:38;;;;;;;9.30;4.68;;;6.60;90.00;;;;;;5094350;28;20471;-54
2021/03/27 03:24:11;;;;;;;7.90;3.95;;;6.60;90.00;;;;;;5094470;28;20068;-51
2021/03/27 03:27:06;;;;;;;10.10;4.60;;;6.60;89.70;;;;;;5080267;28;20496;-52
2021/03/27 03:29:54;;;;;;;6.95;3.88;;;6.60;89.50;;;;;;5093076;28;20044;-53
2021/03/27 03:32:25;;;;;;;10.23;4.38;;;6.50;89.40;;;;;;5092699;28;20057;-53
2021/03/27 03:35:03;;;;;;;8.27;4.00;;;6.50;89.50;;;;;;5093493;28;20600;-54
2021/03/27 03:38:03;;;;;;;9.57;4.00;;;6.50;89.40;;;;;;5091944;28;20758;-53
2021/03/27 03:41:08;;;;;;;8.18;3.95;;;6.50;89.40;;;;;;5066961;28;20032;-52
2021/03/27 03:43:49;;;;;;;10.38;3.95;;;6.40;89.20;;;;;;5092409;28;20048;-52
2021/03/27 03:46:34;;;;;;;11.15;3.50;;;6.40;88.70;;;;;;5093319;28;20090;-54
2021/03/27 03:49:30;;;;;;;7.53;3.67;;;6.40;88.90;;;;;;5085981;28;20096;-52
2021/03/27 03:52:33;;;;;;;11.40;3.78;;;6.40;88.60;;;;;;5091725;28;20066;-54
2021/03/27 03:55:15;;;;;;;9.75;3.70;;;6.40;88.30;;;;;;5092273;28;20073;-52
2021/03/27 03:57:58;;;;;;;10.52;3.78;;;6.30;88.20;;;;;;5091886;28;20472;-53
2021/03/27 04:01:00;;;;;;;12.18;3.67;;;6.30;88.30;;;;;;5091447;28;20111;-50
2021/03/27 04:03:36;;;;;;;9.05;3.47;;;6.20;88.10;;;;;;5087096;28;20044;-54
2021/03/27 04:06:04;;;;;;;12.68;2.97;;;6.20;88.30;;;;;;5093663;28;20139;-50
2021/03/27 04:08:37;;;;;;;10.50;3.10;;;6.20;88.00;;;;;;5093977;28;20102;-53
2021/03/27 04:11:28;;;;;;;7.15;2.67;;;6.10;87.90;;;;;;5094848;28;20412;-55
2021/03/27 04:13:56;;;;;;;7.93;2.47;;;6.10;87.70;;;;;;5082586;28;20105;-53
2021/03/27 04:16:25;;;;;;;10.52;2.70;;;6.00;87.80;;;;;;5091513;28;20044;-55
2021/03/27 04:19:10;;;;;;;12.57;3.22;;;6.10;88.00;;;;;;5093152;28;20413;-53
2021/03/27 04:22:00;;;;;;;5.80;2.10;;;6.10;88.20;;;;;;5092261;28;20070;-53
2021/03/27 04:24:36;;;;;;;10.13;3.03;;;6.10;88.20;;;;;;5092911;28;20052;-51
2021/03/27 04:27:32;;;;;;;10.40;2.70;;;6.10;88.20;;;;;;5092123;28;20036;-54
2021/03/27 04:30:05;;;;;;;13.82;3.42;;;6.10;88.20;;;;;;5107370;28;20048;-52
2021/03/27 04:32:34;;;;;;;;;;;6.10;88.30;;;;;;5081545;28;20047;-54
2021/03/27 04:35:09;;;;;;;11.02;3.60;;;6.10;88.40;;;;;;5098900;28;19951;-53
2021/03/27 04:37:44;;;;;;;11.55;4.50;;;6.10;88.30;;;;;;5092127;28;20495;-52
2021/03/27 04:40:50;;;;;;;12.30;4.78;;;6.10;88.50;;;;;;5098070;28;20035;-54
2021/03/27 04:43:28;;;;;;;17.30;5.25;;;6.10;88.60;;;;;;5089024;28;20131;-53
2021/03/27 04:46:17;;;;;;;14.13;5.38;;;6.10;88.50;;;;;;5095252;28;20449;-55
2021/03/27 04:48:52;;;;;;;14.95;6.10;;;6.10;88.70;;;;;;5083682;28;20040;-53
2021/03/27 04:51:41;;;;;;;15.38;5.68;;;6.10;88.80;;;;;;5093258;28;20127;-53
2021/03/27 04:54:31;;;;;;;14.20;5.55;;;6.10;89.20;;;;;;5094222;28;20047;-53
2021/03/27 04:56:56;;;;;;;10.65;4.63;;;6.10;89.10;;;;;;5089463;28;20063;-53
2021/03/27 04:59:28;;;;;;;17.23;5.57;;;6.10;89.50;;;;;;5091099;28;20500;-52
2021/03/27 05:02:34;;;;;;;11.98;5.03;;;6.10;89.20;;;;;;5088883;28;20070;-53
2021/03/27 05:05:24;;;;;;;14.13;6.18;;;6.10;89.50;;;;;;5060289;28;20083;-53
2021/03/27 05:07:58;;;;;;;12.43;5.65;;;6.10;89.60;;;;;;5099456;28;20052;-54
2021/03/27 05:10:31;;;;;;;13.85;5.57;;;6.10;89.80;;;;;;5091770;28;20044;-51
2021/03/27 05:13:18;;;;;;;16.10;5.85;;;6.10;90.00;;;;;;5091945;28;20464;-53
2021/03/27 05:15:51;;;;;;;15.70;6.10;;;6.10;90.40;;;;;;5091514;28;20035;-52
2021/03/27 05:18:32;;;;;;;14.40;5.47;;;6.00;90.20;;;;;;5091750;28;20051;-53
2021/03/27 05:21:27;;;;;;;13.32;5.32;;;6.00;90.30;;;;;;5077855;28;20119;-50
2021/03/27 05:24:25;;;;;;;10.02;4.43;;;6.10;90.60;;;;;;5091535;28;20043;-52
2021/03/27 05:26:56;;;;;;;7.97;4.25;;;6.20;90.10;;;;;;5083174;28;20063;-50
2021/03/27 05:29:58;;;;;;;11.90;4.60;;;6.10;90.20;;;;;;5093799;28;20559;-54
2021/03/27 05:32:48;;;;;;;12.38;5.30;;;6.00;90.30;;;;;;5078134;28;20085;-54
2021/03/27 05:35:27;;;;;;;10.55;4.85;;;6.00;90.30;;;;;;5090439;28;20516;-51
2021/03/27 05:37:57;;;;;;;11.20;5.22;;;5.90;90.50;;;;;;5093826;28;20056;-54
2021/03/27 05:40:41;;;;;;;12.32;5.30;;;5.90;90.60;;;;;;5075337;28;20564;-54
2021/03/27 05:43:34;;;;;;;9.65;5.25;;;5.80;90.60;;;;;;5079042;28;20248;-52
2021/03/27 05:46:38;;;;;;;16.00;5.85;;;5.80;90.80;;;;;;5087806;28;20108;-54
2021/03/27 05:49:44;;;;;;;15.18;6.70;;;5.80;90.90;;;;;;5095380;28;20136;-54
2021/03/27 05:52:45;;;;;;;15.02;7.38;;;5.80;91.00;;;;;;5089803;28;20044;-53
2021/03/27 05:55:39;;;;;;;14.73;6.97;;;5.80;91.20;;;;;;5081738;28;20131;-55
2021/03/27 05:58:42;;;;;;;13.73;6.75;;;5.80;91.30;;;;;;5077869;28;20114;-52
2021/03/27 06:01:33;;;;;;;15.82;5.05;;;5.80;91.10;;;;;;5072589;28;20480;-54
2021/03/27 06:04:27;;;;;;;13.18;5.40;;;5.90;90.90;;;;;;5089902;28;20075;-49
2021/03/27 06:07:11;;;;;;;15.13;5.75;;;5.90;90.70;;;;;;5101716;28;20040;-53
2021/03/27 06:09:39;;;;;;;13.40;5.50;;;6.00;90.70;;;;;;5109256;28;20127;-52
2021/03/27 06:12:08;;;;;;;14.85;6.03;;;6.00;90.70;;;;;;5094764;28;20139;-53
2021/03/27 06:14:42;;;;;;;14.52;5.20;;;6.00;90.80;;;;;;5081298;28;20592;-53
2021/03/27 06:17:26;;;;;;;11.00;4.85;;;6.00;90.80;;;;;;5096557;28;20043;-53
2021/03/27 06:20:33;;;;;;;13.32;5.75;;;6.10;90.70;;;;;;5091736;28;20044;-53
2021/03/27 06:23:15;;;;;;;17.70;4.80;;;6.10;90.60;;;;;;5087411;28;20098;-53
2021/03/27 06:26:14;;;;;;;15.38;4.80;;;6.10;90.50;;;;;;5062303;28;20036;-53
2021/03/27 06:29:09;;;;;;;13.50;4.25;;;6.20;90.50;;;;;;5079508;28;20059;-54
2021/03/27 06:32:22;;;;;;;16.38;4.57;;;6.30;90.30;;;;;;5077559;28;20149;-54
2021/03/27 06:35:02;;;;;;;13.23;3.13;;;6.50;88.90;;;;;;5091413;28;20058;-53
2021/03/27 06:37:38;;;;;;;9.68;2.47;;;6.50;87.00;;;;;;5072495;28;20044;-51
2021/03/27 06:40:25;;;;;;;13.23;2.70;;;6.60;86.90;;;;;;5091333;28;20519;-54
2021/03/27 06:43:23;;;;;;;11.75;2.85;;;6.60;85.00;;;;;;5090275;28;20036;-50
2021/03/27 06:46:12;;;;;;;13.52;2.72;;;6.70;84.50;;;;;;5097008;28;20097;-53
2021/03/27 06:48:38;;;;;;;15.95;3.38;;;6.70;85.10;;;;;;5093101;28;20397;-52
2021/03/27 06:51:37;;;;;;;11.90;2.47;;;6.70;84.80;;;;;;5095168;28;20085;-52
2021/03/27 06:54:22;;;;;;;11.55;2.60;;;6.70;84.90;;;;;;5069871;28;20047;-54
2021/03/27 06:57:12;;;;;;;14.80;2.60;;;6.70;83.50;;;;;;5093464;28;20489;-54
2021/03/27 07:00:00;;;;;;;14.77;2.63;;;6.70;82.50;;;;;;5092042;28;20485;-52
2021/03/27 07:02:47;;;;;;;14.43;2.90;;;6.70;81.70;;;;;;5096733;28;20070;-51
2021/03/27 07:05:32;;;;;;;11.23;2.40;;;6.70;79.80;;;;;;5103215;28;20035;-53
2021/03/27 07:08:06;;;;;;;13.85;2.22;;;6.70;79.10;;;;;;5103015;28;20198;-51
2021/03/27 07:11:02;;;;;;;12.80;2.15;;;6.70;78.90;;;;;;5106228;28;20085;-52
2021/03/27 07:13:48;;;;;;;15.35;3.00;;;6.70;78.30;;;;;;5084958;28;20036;-52
2021/03/27 07:16:31;;;;;;;12.38;2.13;;;6.70;77.90;;;;;;5099936;28;20032;-50
2021/03/27 07:19:33;;;;;;;15.32;2.90;;;6.80;76.70;;;;;;5105123;28;20059;-53
2021/03/27 07:22:23;;;;;;;12.55;2.55;;;6.80;78.30;;;;;;5083150;28;20036;-54
2021/03/27 07:25:17;;;;;;;11.15;2.70;;;6.80;77.60;;;;;;5094585;28;20066;-53
2021/03/27 07:27:52;;;;;;;13.25;2.30;;;6.90;77.00;;;;;;5094295;28;20051;-53
2021/03/27 07:31:05;;;;;;;18.83;2.72;;;6.90;77.10;;;;;;5107824;28;20052;-53
2021/03/27 07:33:46;;;;;;;17.75;2.78;;;6.90;76.20;;;;;;5089083;28;20060;-54
2021/03/27 07:36:33;;;;;;;14.02;2.88;;;6.90;75.90;;;;;;5104827;28;20050;-52
2021/03/27 07:39:17;;;;;;;13.90;3.17;;;6.90;76.50;;;;;;5107559;28;20044;-53
2021/03/27 07:42:15;;;;;;;16.75;2.70;;;6.90;75.60;;;;;;5093895;28;20048;-52
2021/03/27 07:45:28;;;;;;;16.77;2.75;;;6.90;75.80;;;;;;5084338;28;20143;-54
2021/03/27 07:48:24;;;;;;;15.50;2.63;;;6.90;75.70;;;;;;5045849;28;20118;-54
2021/03/27 07:51:10;;;;;;;11.45;2.42;;;6.90;74.90;;;;;;5094021;28;20048;-54
2021/03/27 07:53:57;;;;;;;20.20;2.90;;;6.90;75.10;;;;;;5093556;28;20523;-55
2021/03/27 07:56:43;;;;;;;14.93;2.70;;;6.90;74.00;;;;;;5093158;28;20040;-54
2021/03/27 08:00:07;;;;;;;14.50;2.67;;;6.90;74.40;;;;;;5092786;28;20562;-54
2021/03/27 08:02:42;;;;;;;17.65;3.45;;;6.90;74.60;;;;;;5052528;28;20040;-52
2021/03/27 08:05:45;;;;;;;12.57;2.60;;;7.00;74.90;;;;;;5050468;28;20110;-53
2021/03/27 08:08:28;;;;;;;18.73;2.90;;;7.00;74.00;;;;;;5083367;28;20412;-53
2021/03/27 08:11:15;;;;;;;14.48;3.13;;;7.10;73.40;;;;;;5099066;28;20093;-54
2021/03/27 08:14:49;;;;;;;21.27;3.25;;;7.20;72.90;;;;;;5102853;28;20085;-53
2021/03/27 08:17:23;;;;;;;12.23;2.63;;;7.30;71.40;;;;;;5057824;28;20086;-53
2021/03/27 08:20:01;;;;;;;14.60;3.03;;;7.40;71.00;;;;;;5064538;28;20068;-51
2021/03/27 08:23:14;;;;;;;15.13;2.38;;;7.40;71.40;;;;;;5065196;28;20040;-51
2021/03/27 08:26:14;;;;;;;14.90;2.38;;;7.30;70.80;;;;;;5083444;28;20511;-53
2021/03/27 08:29:03;;;;;;;15.52;2.50;;;7.40;72.80;;;;;;5079862;28;20028;-53
2021/03/27 08:32:23;;;;;;;11.95;2.80;;;7.50;72.70;;;;;;5094064;28;20465;-52
2021/03/27 08:35:15;;;;;;;12.43;2.63;;;7.70;72.90;;;;;;5076362;28;20183;-51
2021/03/27 08:37:41;;;;;;;12.75;2.50;;;7.90;72.00;;;;;;5092551;28;20428;-54
2021/03/27 08:40:24;;;;;;;8.38;2.22;;;8.10;72.20;;;;;;5092762;28;20032;-54
2021/03/27 08:43:14;;;;;;;18.15;2.80;;;8.10;69.70;;;;;;5092631;28;20093;-55
2021/03/27 08:46:17;;;;;;;10.52;2.75;;;8.20;69.00;;;;;;5088160;28;20058;-55
2021/03/27 08:48:52;;;;;;;;;;;8.20;66.20;;;;;;5092847;28;20038;-53
2021/03/27 08:51:26;;;;;;;15.02;2.65;;;8.00;63.60;;;;;;5091870;28;19920;-52
2021/03/27 08:54:25;;;;;;;13.68;2.58;;;7.80;63.80;;;;;;5092353;28;20463;-53
2021/03/27 08:57:11;;;;;;;11.50;2.42;;;7.60;66.90;;;;;;5086884;28;20497;-52
2021/03/27 09:00:13;;;;;;;13.82;2.25;;;7.40;67.60;;;;;;5092077;28;20032;-54
2021/03/27 09:03:13;;;;;;;12.52;2.20;;;7.30;67.70;;;;;;5087129;28;20057;-54
2021/03/27 09:05:50;;;;;;;12.77;2.38;;;7.20;67.40;;;;;;5092632;28;20081;-53
2021/03/27 09:08:38;;;;;;;14.27;2.85;;;7.20;67.40;;;;;;5099003;28;20114;-54
2021/03/27 09:11:31;;;;;;;12.50;2.38;;;7.10;67.20;;;;;;5088217;28;20047;-53
2021/03/27 09:14:13;;;;;;;14.23;2.50;;;7.10;67.50;;;;;;5092039;28;20040;-53
2021/03/27 09:17:16;;;;;;;13.23;2.33;;;7.20;69.80;;;;;;5078093;28;20353;-54
2021/03/27 09:20:19;;;;;;;11.27;2.60;;;7.50;71.00;;;;;;5091141;28;20036;-52
2021/03/27 09:22:48;;;;;;;11.55;2.47;;;7.80;69.70;;;;;;5091457;28;20408;-53
2021/03/27 09:25:54;;;;;;;12.43;3.05;;;7.90;67.80;;;;;;5091384;28;20036;-54
2021/03/27 09:28:32;;;;;;;9.88;2.17;;;7.90;65.20;;;;;;5091641;28;20043;-54
2021/03/27 09:31:19;;;;;;;11.00;1.92;;;7.70;67.20;;;;;;5091803;28;20461;-54
2021/03/27 09:34:28;;;;;;;6.25;1.63;;;7.30;68.70;;;;;;5079537;28;20109;-53
2021/03/27 09:37:32;;;;;;;7.38;1.40;;;6.60;71.00;;;;;;5090710;28;20336;-55
2021/03/27 09:40:23;;;;;;;6.25;1.60;;;6.20;73.20;;;;;;5091104;28;20225;-53
2021/03/27 09:43:10;;;;;;;9.02;1.70;;;6.00;76.00;;;;;;5091128;28;20100;-53
2021/03/27 09:46:01;;;;;;;10.43;1.70;;;6.10;77.40;;;;;;5084525;28;20032;-54
2021/03/27 09:48:43;;;;;;;16.02;2.25;;;6.40;78.10;;;;;;5093487;28;20036;-53
2021/03/27 09:51:45;;;;;;;9.07;2.23;;;6.70;79.70;;;;;;5090976;28;20047;-54
2021/03/27 09:54:33;;;;;;;17.60;2.72;;;7.00;78.80;;;;;;5088046;28;20066;-53
2021/03/27 09:57:08;;;;;;;9.85;2.25;;;7.30;77.40;;;;;;5093295;28;20121;-53
2021/03/27 09:59:45;;;;;;;12.07;2.55;;;7.50;78.00;;;;;;5095164;28;20069;-51
2021/03/27 10:02:44;;;;;;;9.05;2.65;;;7.70;78.30;;;;;;5098948;28;20035;-54
2021/03/27 10:05:10;;;;;;;14.07;2.13;;;7.70;72.30;;;;;;5087169;28;20031;-54
2021/03/27 10:07:59;;;;;;;11.00;1.77;;;7.50;69.70;;;;;;5090884;28;20511;-53
2021/03/27 10:10:54;;;;;;;7.82;1.83;;;7.20;69.60;;;;;;5098044;28;20063;-51
2021/03/27 10:13:39;;;;;;;10.38;2.08;;;6.90;68.80;;;;;;5068140;28;20047;-51
2021/03/27 10:16:17;;;;;;;8.65;1.90;;;6.90;71.60;;;;;;5090393;28;20044;-51
2021/03/27 10:18:57;;;;;;;10.80;1.92;;;7.10;72.10;;;;;;5094427;28;20036;-54
2021/03/27 10:21:23;;;;;;;11.35;2.97;;;7.30;70.60;;;;;;5086811;28;20039;-53
2021/03/27 10:24:07;;;;;;;12.45;1.92;;;7.60;72.30;;;;;;5089367;28;20043;-51
2021/03/27 10:26:44;;;;;;;7.82;2.30;;;7.80;72.20;;;;;;5088540;28;20484;-54
2021/03/27 10:29:10;;;;;;;13.45;2.60;;;8.00;72.70;;;;;;5072260;28;20121;-55
2021/03/27 10:31:47;;;;;;;11.10;2.13;;;7.90;72.20;;;;;;5082832;28;20032;-54
2021/03/27 10:34:38;;;;;;;9.88;2.08;;;7.80;70.60;;;;;;5092107;28;20503;-50
2021/03/27 10:37:10;;;;;;;7.47;1.83;;;7.70;69.40;;;;;;5089651;28;20488;-53
2021/03/27 10:39:39;;;;;;;10.30;1.73;;;7.60;66.60;;;;;;5091977;28;20039;-54
2021/03/27 10:42:25;;;;;;;10.10;1.80;;;7.60;66.60;;;;;;5082716;28;20040;-53
2021/03/27 10:45:21;;;;;;;10.77;2.33;;;7.70;68.20;;;;;;5090116;28;20082;-54
2021/03/27 10:48:07;;;;;;;6.32;1.70;;;7.90;68.60;;;;;;5077160;28;20135;-51
2021/03/27 10:50:42;;;;;;;9.30;2.33;;;7.70;69.10;;;;;;5092177;28;20408;-55
2021/03/27 10:53:19;;;;;;;8.68;2.25;;;7.40;70.70;;;;;;5102311;28;20035;-53
2021/03/27 10:56:03;;;;;;;7.78;1.77;;;7.30;71.80;;;;;;5101835;28;20040;-52
2021/03/27 10:58:52;;;;;;;10.80;2.20;;;7.20;70.40;;;;;;5092705;28;20044;-49
2021/03/27 11:01:41;;;;;;;12.00;2.05;;;7.10;72.10;;;;;;5091690;28;20044;-54
2021/03/27 11:04:26;;;;;;;13.63;2.58;;;7.00;72.10;;;;;;5089366;28;20041;-52
2021/03/27 11:07:07;;;;;;;16.55;2.35;;;7.10;73.60;;;;;;5089504;28;20067;-54
2021/03/27 11:09:51;;;;;;;7.60;2.17;;;7.10;75.00;;;;;;5094756;28;20036;-53
2021/03/27 11:12:38;;;;;;;16.48;2.65;;;7.30;74.50;;;;;;5101980;28;20052;-52
2021/03/27 11:15:18;;;;;;;10.95;2.38;;;7.40;74.10;;;;;;5097316;28;20058;-51
2021/03/27 11:18:24;;;;;;;12.43;2.83;;;7.50;73.30;;;;;;5094694;28;20507;-50
2021/03/27 11:21:10;;;;;;;11.43;2.47;;;7.50;73.60;;;;;;5075881;28;20055;-52
2021/03/27 11:23:46;;;;;;;17.92;3.17;;;7.60;72.40;;;;;;5091184;28;20070;-53
2021/03/27 11:26:49;;;;;;;13.88;2.10;;;7.60;73.30;;;;;;5091446;28;20048;-53
2021/03/27 11:29:32;;;;;;;11.00;2.88;;;7.70;72.50;;;;;;5091791;28;20472;-50
2021/03/27 11:32:14;;;;;;;10.95;1.95;;;7.80;70.60;;;;;;5113840;27;20039;-53
2021/03/27 11:34:54;;;;;;;9.32;2.00;;;8.20;68.60;;;;;;5092728;28;20415;-55
2021/03/27 11:37:31;;;;;;;11.38;2.47;;;8.40;67.00;;;;;;5096369;28;20040;-50
2021/03/27 11:40:21;;;;;;;9.32;2.13;;;8.40;63.20;;;;;;5093392;28;20032;-52
2021/03/27 11:43:23;;;;;;;14.23;2.15;;;8.40;65.10;;;;;;5093016;28;20040;-50
2021/03/27 11:45:57;;;;;;;12.32;2.30;;;8.40;66.10;;;;;;5089889;28;20078;-53
2021/03/27 11:48:53;;;;;;;8.93;2.00;;;8.30;66.60;;;;;;5091942;28;20044;-52
2021/03/27 11:51:35;;;;;;;11.48;2.25;;;8.20;66.70;;;;;;5092060;28;20044;-54
2021/03/27 11:54:12;;;;;;;11.10;2.58;;;8.20;67.50;;;;;;5094785;28;20498;-55
2021/03/27 11:56:55;;;;;;;9.35;2.22;;;8.10;69.00;;;;;;5081594;28;20028;-52
2021/03/27 12:02:35;;;;;;;11.55;2.13;;;7.50;69.10;;;;;;5099859;28;20157;-51
2021/03/27 12:05:21;;;;;;;13.55;1.92;;;7.30;72.10;;;;;;5103146;28;20040;-53
2021/03/27 12:08:01;;;;;;;9.63;2.40;;;7.10;74.20;;;;;;5099138;28;20044;-53
2021/03/27 12:10:46;;;;;;;5.35;1.20;;;6.90;74.30;;;;;;5104115;28;20051;-51
2021/03/27 12:13:18;;;;;;;7.13;1.40;;;6.70;74.90;;;;;;5092725;28;20085;-52
2021/03/27 12:15:52;;;;;;;7.55;1.85;;;6.50;76.00;;;;;;5092230;28;20039;-52
2021/03/27 12:18:52;;;;;;;8.18;1.35;;;6.40;76.50;;;;;;5092343;28;20483;-52
2021/03/27 12:21:25;;;;;;;8.10;1.90;;;6.30;78.50;;;;;;5088135;28;20039;-49
2021/03/27 12:23:58;;;;;;;8.07;2.28;;;6.20;79.20;;;;;;5091011;28;20399;-50
2021/03/27 12:26:39;;;;;;;11.52;2.45;;;6.20;80.30;;;;;;5095891;28;20032;-53
2021/03/27 12:29:47;;;;;;;12.32;2.67;;;6.10;80.80;;;;;;5095063;28;20042;-55
2021/03/27 12:32:51;;;;;;;12.82;2.58;;;6.40;83.10;;;;;;5094447;28;20051;-54
2021/03/27 12:35:26;;;;;;;12.18;2.60;;;6.70;82.90;;;;;;5091558;28;20083;-49
2021/03/27 12:38:07;;;;;;;12.10;2.33;;;7.00;83.30;;;;;;5093769;28;20036;-52
2021/03/27 12:41:03;;;;;;;13.98;2.35;;;7.30;82.60;;;;;;5095557;28;20472;-53
2021/03/27 12:43:31;;;;;;;11.38;2.25;;;7.30;81.10;;;;;;5091463;28;20032;-51
2021/03/27 12:46:18;;;;;;;10.07;2.38;;;7.10;80.90;;;;;;5090087;28;20783;-49
2021/03/27 12:49:05;;;;;;;7.97;2.10;;;7.00;80.60;;;;;;5089622;28;20110;-52
2021/03/27 12:51:42;;;;;;;12.32;2.10;;;7.10;82.40;;;;;;5087219;28;20081;-54
2021/03/27 12:54:21;;;;;;;10.93;2.30;;;7.40;83.00;;;;;;5091616;28;20044;-49
2021/03/27 12:57:09;;;;;;;9.05;2.10;;;7.60;82.50;;;;;;5096245;28;20062;-49
2021/03/27 13:00:09;;;;;;;14.25;2.40;;;8.00;82.70;;;;;;5092288;28;20966;-50
2021/03/27 13:02:37;;;;;;;9.85;2.50;;;8.20;78.80;;;;;;5080383;28;20093;-55
2021/03/27 13:05:28;;;;;;;10.80;2.30;;;8.20;79.60;;;;;;5088434;28;20028;-50
2021/03/27 13:07:53;;;;;;;12.27;2.47;;;8.30;77.90;;;;;;5090974;28;20032;-49
2021/03/27 13:10:41;;;;;;;16.60;3.35;;;8.30;75.60;;;;;;5094810;28;20039;-52
2021/03/27 13:13:24;;;;;;;15.40;3.05;;;8.20;75.20;;;;;;5089687;28;20541;-53
2021/03/27 13:16:11;;;;;;;13.18;3.13;;;8.10;74.50;;;;;;5088899;28;20111;-52
2021/03/27 13:18:49;;;;;;;12.48;2.90;;;8.00;73.90;;;;;;5091294;28;20048;-51
2021/03/27 13:21:33;;;;;;;11.32;2.60;;;8.00;73.00;;;;;;5090758;28;20040;-52
2021/03/27 13:24:08;;;;;;;14.95;3.30;;;8.00;74.40;;;;;;5091278;28;20086;-51
2021/03/27 13:26:35;;;;;;;16.20;3.65;;;8.00;74.10;;;;;;5089415;28;20514;-50
2021/03/27 13:29:32;;;;;;;13.77;3.30;;;8.00;73.90;;;;;;5082441;28;20503;-51
2021/03/27 13:32:20;;;;;;;14.48;2.67;;;7.90;73.40;;;;;;5090979;28;20106;-53
2021/03/27 13:35:14;;;;;;;16.65;3.45;;;7.80;74.40;;;;;;5077080;28;20389;-53
2021/03/27 13:37:59;;;;;;;17.08;2.92;;;7.70;76.20;;;;;;5087674;28;20065;-51
2021/03/27 13:40:34;;;;;;;10.52;2.55;;;7.50;76.90;;;;;;5091154;28;20036;-54
2021/03/27 13:43:31;;;;;;;9.10;2.05;;;7.40;78.70;;;;;;5090807;28;20130;-54
2021/03/27 13:46:23;;;;;;;14.93;2.85;;;7.30;77.80;;;;;;5086863;28;20036;-50
2021/03/27 13:49:00;;;;;;;6.72;2.40;;;7.40;79.90;;;;;;5088843;28;20100;-51
2021/03/27 13:51:32;;;;;;;17.85;2.90;;;7.40;78.00;;;;;;5100018;28;20038;-52
2021/03/27 13:54:41;;;;;;;13.20;2.65;;;7.50;78.10;;;;;;5090586;28;20047;-51
2021/03/27 13:57:28;;;;;;;16.35;3.13;;;7.50;78.50;;;;;;5089959;28;20042;-51
2021/03/27 14:00:18;;;;;;;16.88;3.20;;;7.60;76.60;;;;;;5090476;28;20079;-55
2021/03/27 14:02:58;;;;;;;13.38;2.45;;;7.70;73.50;;;;;;5086322;28;20484;-54
2021/03/27 14:05:38;;;;;;;16.80;2.33;;;7.80;72.60;;;;;;5084367;28;20040;-53
2021/03/27 14:08:13;;;;;;;17.45;2.50;;;7.80;73.00;;;;;;5088091;28;20039;-54
2021/03/27 14:10:59;;;;;;;16.27;3.38;;;7.80;73.50;;;;;;5084174;28;20120;-54
2021/03/27 14:13:39;;;;;;;17.35;3.45;;;7.90;73.80;;;;;;5095183;28;20068;-51
2021/03/27 14:16:10;;;;;;;12.82;2.70;;;8.00;73.90;;;;;;5091070;28;20036;-53
2021/03/27 14:18:50;;;;;;;16.23;3.10;;;8.00;73.20;;;;;;5098238;28;20043;-51
2021/03/27 14:21:32;;;;;;;16.98;2.70;;;8.10;72.70;;;;;;5101634;28;20068;-50
2021/03/27 14:24:22;;;;;;;11.15;2.42;;;8.30;72.30;;;;;;5092557;28;20108;-51
2021/03/27 14:27:05;;;;;;;13.43;3.10;;;8.50;70.10;;;;;;5088046;28;20044;-50
2021/03/27 14:29:59;;;;;;;17.25;3.03;;;8.60;71.60;;;;;;5093901;28;20101;-52